Time;durP1;ratioP1;P1;durP2;ratioP2;P2;SDS_P1;SDS_P2;PMS_P1;PMS_P2;Temp;Humidity;BMP_temperature;BMP_pressure;BME280_temperature;BME280_humidity;BME280_pressure;Samples;Min_cycle;Max_cycle;Signal;HPM_P1;HPM_P2
2022/11/26 00:00:19;;;;;;;25.15;7.50;;;5.20;99.90;;;;;;4954639;28;20059;-69
2022/11/26 00:02:45;;;;;;;19.13;6.55;;;5.20;99.90;;;;;;4955158;28;20117;-69
2022/11/26 00:05:15;;;;;;;26.55;6.57;;;5.20;99.90;;;;;;4954004;29;20510;-70
2022/11/26 00:07:47;;;;;;;28.52;7.43;;;5.20;99.90;;;;;;4940047;28;20040;-69
2022/11/26 00:10:28;;;;;;;18.23;5.72;;;5.20;99.90;;;;;;4938175;29;20078;-69
2022/11/26 00:12:56;;;;;;;26.95;8.38;;;5.10;99.90;;;;;;4945476;28;20622;-69
2022/11/26 00:15:24;;;;;;;20.67;6.70;;;5.10;99.90;;;;;;4955663;28;20397;-69
2022/11/26 00:17:51;;;;;;;19.08;6.90;;;5.10;99.90;;;;;;4956316;28;20081;-69
2022/11/26 00:20:20;;;;;;;20.10;7.00;;;5.10;99.90;;;;;;4973799;28;20043;-69
2022/11/26 00:22:50;;;;;;;28.85;6.93;;;5.20;99.90;;;;;;4940248;28;20046;-69
2022/11/26 00:25:29;;;;;;;27.67;7.57;;;5.20;99.90;;;;;;4956458;28;20086;-69
2022/11/26 00:27:57;;;;;;;21.60;6.87;;;5.20;99.90;;;;;;4940566;28;20118;-69
2022/11/26 00:30:26;;;;;;;23.23;7.28;;;5.20;99.90;;;;;;4956032;28;20310;-70
2022/11/26 00:32:53;;;;;;;25.83;6.95;;;5.20;99.90;;;;;;4973691;28;20046;-70
2022/11/26 00:35:19;;;;;;;33.20;7.28;;;5.30;99.90;;;;;;4956337;28;20035;-69
2022/11/26 00:37:50;;;;;;;22.58;7.03;;;5.30;99.90;;;;;;4956253;28;20067;-69
2022/11/26 00:40:29;;;;;;;23.10;7.55;;;5.20;99.90;;;;;;4973481;28;20496;-69
2022/11/26 00:42:55;;;;;;;24.63;7.70;;;5.20;99.90;;;;;;4973621;28;20043;-69
2022/11/26 00:45:24;;;;;;;22.77;7.07;;;5.20;99.90;;;;;;4955584;28;20074;-69
2022/11/26 00:47:51;;;;;;;24.80;8.07;;;5.20;99.90;;;;;;4956258;28;20043;-69
2022/11/26 00:50:19;;;;;;;26.95;7.53;;;5.20;99.90;;;;;;4973232;28;20039;-69
2022/11/26 00:52:47;;;;;;;24.48;7.05;;;5.10;99.90;;;;;;4940256;28;20381;-69
2022/11/26 00:55:30;;;;;;;22.25;6.68;;;5.10;99.90;;;;;;4955748;28;20105;-69
2022/11/26 00:57:56;;;;;;;17.13;6.38;;;5.10;99.90;;;;;;4955361;28;20050;-70
2022/11/26 01:00:25;;;;;;;22.55;6.28;;;5.10;99.90;;;;;;4939975;28;20649;-69
2022/11/26 01:02:51;;;;;;;22.88;6.70;;;5.10;99.90;;;;;;4973104;28;20043;-69
2022/11/26 01:05:18;;;;;;;18.67;7.13;;;5.20;99.90;;;;;;4956086;28;20046;-69
2022/11/26 01:07:45;;;;;;;23.98;7.03;;;5.20;99.90;;;;;;4973531;28;20158;-69
2022/11/26 01:10:23;;;;;;;21.80;6.00;;;5.20;99.90;;;;;;4973519;28;20042;-69
2022/11/26 01:12:50;;;;;;;24.58;7.20;;;5.20;99.90;;;;;;4955310;28;20066;-70
2022/11/26 01:15:18;;;;;;;23.17;7.82;;;5.30;99.90;;;;;;4940294;28;20381;-70
2022/11/26 01:17:43;;;;;;;25.73;6.75;;;5.30;99.90;;;;;;4973153;28;20046;-69
2022/11/26 01:20:26;;;;;;;23.05;6.53;;;5.30;99.90;;;;;;4973320;28;20035;-69
2022/11/26 01:22:54;;;;;;;23.10;6.57;;;5.30;99.90;;;;;;4955688;28;20043;-70
2022/11/26 01:25:21;;;;;;;29.08;6.97;;;5.20;99.90;;;;;;4955746;28;20039;-70
2022/11/26 01:27:46;;;;;;;28.00;6.60;;;5.20;99.90;;;;;;4972604;28;20034;-71
2022/11/26 01:30:19;;;;;;;22.70;6.80;;;5.20;99.90;;;;;;4939554;28;20494;-70
2022/11/26 01:32:47;;;;;;;36.63;7.93;;;5.20;99.90;;;;;;4955773;28;20039;-70
2022/11/26 01:35:14;;;;;;;25.65;7.20;;;5.20;99.90;;;;;;4955565;28;20050;-70
2022/11/26 01:37:40;;;;;;;26.88;7.45;;;5.20;99.90;;;;;;4955680;28;20086;-70
2022/11/26 01:40:25;;;;;;;29.65;6.80;;;5.20;99.90;;;;;;4955391;28;20532;-70
2022/11/26 01:43:03;;;;;;;25.55;7.18;;;5.30;99.90;;;;;;4972414;28;20051;-70
2022/11/26 01:45:29;;;;;;;24.95;6.85;;;5.30;99.90;;;;;;4955612;28;20039;-70
2022/11/26 01:47:55;;;;;;;24.50;6.55;;;5.30;99.90;;;;;;4955522;28;20426;-70
2022/11/26 01:50:35;;;;;;;20.10;5.95;;;5.30;99.90;;;;;;4972538;28;20075;-70
2022/11/26 01:53:04;;;;;;;26.92;6.50;;;5.40;99.90;;;;;;4972550;28;20059;-70
2022/11/26 01:55:43;;;;;;;30.38;8.95;;;5.40;99.90;;;;;;4955230;28;20051;-70
2022/11/26 01:58:14;;;;;;;23.38;7.43;;;5.40;99.90;;;;;;4954921;28;20043;-70
2022/11/26 02:00:41;;;;;;;19.27;7.28;;;5.40;99.90;;;;;;4972596;28;20070;-70
2022/11/26 02:03:07;;;;;;;19.35;6.72;;;5.40;99.90;;;;;;4939179;28;20073;-70
2022/11/26 02:05:43;;;;;;;30.42;7.75;;;5.50;99.90;;;;;;4972275;28;20039;-70
2022/11/26 02:08:10;;;;;;;21.08;8.20;;;5.40;99.90;;;;;;4972406;28;20046;-70
2022/11/26 02:10:36;;;;;;;19.65;7.07;;;5.50;99.90;;;;;;4971933;28;20039;-70
2022/11/26 02:13:03;;;;;;;23.38;7.88;;;5.50;99.90;;;;;;4972135;28;20541;-70
2022/11/26 02:15:36;;;;;;;24.38;8.70;;;5.40;99.90;;;;;;4972119;28;20042;-70
2022/11/26 02:18:05;;;;;;;22.67;7.53;;;5.40;99.90;;;;;;4955015;28;20053;-70
2022/11/26 02:20:41;;;;;;;24.65;8.02;;;5.40;99.90;;;;;;4972221;28;20400;-70
2022/11/26 02:23:28;;;;;;;26.08;8.23;;;5.30;99.90;;;;;;4972253;28;20444;-70
2022/11/26 02:26:15;;;;;;;25.60;8.45;;;5.30;99.90;;;;;;4954281;28;20078;-70
2022/11/26 02:29:02;;;;;;;22.48;7.68;;;5.30;99.90;;;;;;4972253;28;20096;-71
2022/11/26 02:31:28;;;;;;;21.00;8.43;;;5.30;99.90;;;;;;4972194;28;20116;-70
2022/11/26 02:34:09;;;;;;;18.67;7.60;;;5.20;99.90;;;;;;4971874;28;20128;-70
2022/11/26 02:36:44;;;;;;;19.65;8.77;;;5.20;99.90;;;;;;4954486;28;20050;-70
2022/11/26 02:39:17;;;;;;;27.67;8.38;;;5.20;99.90;;;;;;4971529;28;20042;-70
2022/11/26 02:41:47;;;;;;;22.73;8.27;;;5.20;99.90;;;;;;4954144;28;20047;-70
2022/11/26 02:44:15;;;;;;;32.00;8.80;;;5.20;99.90;;;;;;4954568;28;20046;-70
2022/11/26 02:46:44;;;;;;;22.95;8.02;;;5.20;99.90;;;;;;4971903;28;20409;-70
2022/11/26 02:49:17;;;;;;;28.92;9.50;;;5.20;99.90;;;;;;4954629;28;20121;-70
2022/11/26 02:51:44;;;;;;;24.38;9.25;;;5.20;99.90;;;;;;4971971;28;20042;-70
2022/11/26 02:54:12;;;;;;;32.72;11.63;;;5.10;99.90;;;;;;4954167;28;20042;-70
2022/11/26 02:56:39;;;;;;;24.08;8.82;;;5.10;99.90;;;;;;4954314;28;20117;-70
2022/11/26 02:59:05;;;;;;;23.85;8.77;;;5.10;99.90;;;;;;4938683;28;20057;-70
2022/11/26 03:01:56;;;;;;;22.88;8.50;;;5.10;99.90;;;;;;4954242;28;20385;-70
2022/11/26 03:04:26;;;;;;;27.10;8.63;;;5.20;99.90;;;;;;4971785;28;20110;-70
2022/11/26 03:06:56;;;;;;;26.75;8.35;;;5.20;99.90;;;;;;4971930;28;20042;-70
2022/11/26 03:09:22;;;;;;;26.27;10.10;;;5.20;99.90;;;;;;4971176;28;20035;-70
2022/11/26 03:11:48;;;;;;;20.67;9.10;;;5.20;99.90;;;;;;4954242;28;20043;-70
2022/11/26 03:14:14;;;;;;;20.58;9.23;;;5.30;99.90;;;;;;4971343;28;20141;-70
2022/11/26 03:16:41;;;;;;;24.08;9.98;;;5.20;99.90;;;;;;4938355;28;20062;-70
2022/11/26 03:19:07;;;;;;;23.77;9.65;;;5.20;99.90;;;;;;4971399;28;20054;-70
2022/11/26 03:21:33;;;;;;;21.13;8.70;;;5.20;99.90;;;;;;4954052;28;20054;-70
2022/11/26 03:23:59;;;;;;;19.63;9.63;;;5.20;99.90;;;;;;4953641;28;20051;-70
2022/11/26 03:26:24;;;;;;;17.27;8.70;;;5.20;99.90;;;;;;4971414;28;20078;-70
2022/11/26 03:28:50;;;;;;;22.45;9.48;;;5.20;99.90;;;;;;4954005;28;20039;-70
2022/11/26 03:31:16;;;;;;;31.60;9.45;;;5.20;99.90;;;;;;4954302;28;20035;-71
2022/11/26 03:33:42;;;;;;;26.00;9.10;;;5.20;99.90;;;;;;4954052;28;20054;-70
2022/11/26 03:36:08;;;;;;;25.50;9.40;;;5.10;99.90;;;;;;4954133;28;20043;-70
2022/11/26 03:38:34;;;;;;;22.52;9.60;;;5.10;99.90;;;;;;4971036;28;20125;-70
2022/11/26 03:41:02;;;;;;;18.92;8.38;;;5.10;99.90;;;;;;4954113;28;20092;-70
2022/11/26 03:43:28;;;;;;;21.65;8.38;;;5.10;99.90;;;;;;4971117;28;20491;-70
2022/11/26 03:45:54;;;;;;;27.85;9.90;;;5.00;99.90;;;;;;4953960;28;20125;-70
2022/11/26 03:48:20;;;;;;;24.50;9.52;;;5.00;99.90;;;;;;4953872;28;20127;-70
2022/11/26 03:50:46;;;;;;;22.20;8.68;;;5.10;99.90;;;;;;4954204;28;20093;-70
2022/11/26 03:53:11;;;;;;;35.42;11.48;;;5.00;99.90;;;;;;4940944;28;20041;-70
2022/11/26 03:55:37;;;;;;;28.95;10.63;;;5.00;99.90;;;;;;4974723;28;20169;-70
2022/11/26 03:58:03;;;;;;;29.63;9.30;;;5.00;99.90;;;;;;4974584;28;20074;-70
2022/11/26 04:00:28;;;;;;;27.73;9.63;;;5.00;99.90;;;;;;4974765;28;20038;-70
2022/11/26 04:02:54;;;;;;;26.33;8.93;;;5.00;99.90;;;;;;4974773;28;20041;-70
2022/11/26 04:05:20;;;;;;;21.10;8.85;;;5.00;99.90;;;;;;4974572;28;20113;-70
2022/11/26 04:07:46;;;;;;;20.52;8.98;;;5.00;99.90;;;;;;4940994;28;20101;-70
2022/11/26 04:10:11;;;;;;;25.40;10.00;;;5.00;99.90;;;;;;4957067;28;20429;-70
2022/11/26 04:12:37;;;;;;;22.27;8.88;;;5.00;99.90;;;;;;4974139;28;20039;-70
2022/11/26 04:15:03;;;;;;;25.08;9.60;;;5.00;99.90;;;;;;4957069;28;20054;-70
2022/11/26 04:17:29;;;;;;;29.65;9.77;;;5.10;99.90;;;;;;4941056;28;20042;-70
2022/11/26 04:19:54;;;;;;;24.05;9.02;;;5.10;99.90;;;;;;4974424;28;20130;-70
2022/11/26 04:22:20;;;;;;;27.88;10.48;;;5.10;99.90;;;;;;4973777;28;20069;-70
2022/11/26 04:24:46;;;;;;;27.65;9.73;;;5.00;99.90;;;;;;4956862;28;20038;-70
2022/11/26 04:27:12;;;;;;;24.33;9.48;;;5.10;99.90;;;;;;4956850;28;20045;-70
2022/11/26 04:29:37;;;;;;;28.55;8.60;;;5.10;99.90;;;;;;4957067;28;20051;-70
2022/11/26 04:32:03;;;;;;;23.88;9.38;;;5.00;99.90;;;;;;4957071;28;20796;-70
2022/11/26 04:34:29;;;;;;;22.63;10.13;;;5.00;99.90;;;;;;4956803;28;20047;-70
2022/11/26 04:36:55;;;;;;;21.80;8.88;;;4.90;99.90;;;;;;4956261;28;20085;-70
2022/11/26 04:39:21;;;;;;;22.50;9.63;;;4.90;99.90;;;;;;4956794;28;20050;-70
2022/11/26 04:41:46;;;;;;;19.20;8.98;;;4.80;99.90;;;;;;4956752;28;20122;-70
2022/11/26 04:44:12;;;;;;;23.48;9.65;;;4.80;99.90;;;;;;4973983;28;20047;-70
2022/11/26 04:46:38;;;;;;;26.90;10.30;;;4.70;99.90;;;;;;4956509;28;20089;-70
2022/11/26 04:49:03;;;;;;;27.10;9.80;;;4.70;99.90;;;;;;4973883;28;20042;-69
2022/11/26 04:51:29;;;;;;;20.52;9.50;;;4.70;99.90;;;;;;4956208;28;20082;-70
2022/11/26 04:53:55;;;;;;;23.63;10.48;;;4.70;99.90;;;;;;4973575;28;20515;-70
2022/11/26 04:56:20;;;;;;;26.33;10.10;;;4.70;99.90;;;;;;4956211;28;20457;-70
2022/11/26 04:58:46;;;;;;;23.67;10.05;;;4.70;99.90;;;;;;4973787;28;20049;-70
2022/11/26 05:01:12;;;;;;;23.55;9.50;;;4.70;99.90;;;;;;4956564;28;20129;-70
2022/11/26 05:03:38;;;;;;;27.42;10.38;;;4.70;99.90;;;;;;4955728;28;20481;-70
2022/11/26 05:06:04;;;;;;;21.33;9.82;;;4.70;99.90;;;;;;4955801;28;20054;-70
2022/11/26 05:08:29;;;;;;;31.85;9.90;;;4.70;99.90;;;;;;4956289;28;20039;-70
2022/11/26 05:10:57;;;;;;;23.30;11.07;;;4.70;99.90;;;;;;4973411;28;20101;-69
2022/11/26 05:13:23;;;;;;;26.48;9.82;;;4.70;99.90;;;;;;4955889;28;20057;-70
2022/11/26 05:15:49;;;;;;;25.30;10.07;;;4.80;99.90;;;;;;4955998;28;20512;-70
2022/11/26 05:18:15;;;;;;;21.55;9.35;;;4.70;99.90;;;;;;4939942;28;20046;-70
2022/11/26 05:20:40;;;;;;;28.58;10.38;;;4.70;99.90;;;;;;4955464;28;20054;-70
2022/11/26 05:23:06;;;;;;;24.38;9.65;;;4.80;99.90;;;;;;4939731;28;20050;-70
2022/11/26 05:25:32;;;;;;;28.15;11.20;;;4.80;99.90;;;;;;4973108;28;20035;-70
2022/11/26 05:27:58;;;;;;;30.73;11.38;;;4.80;99.90;;;;;;4955686;28;20101;-70
2022/11/26 05:30:23;;;;;;;26.80;10.00;;;4.80;99.90;;;;;;4955579;28;20089;-70
2022/11/26 05:32:49;;;;;;;26.02;9.88;;;4.80;99.90;;;;;;4955539;28;20082;-70
2022/11/26 05:35:15;;;;;;;29.15;11.27;;;4.70;99.90;;;;;;4972561;28;20035;-70
2022/11/26 05:37:41;;;;;;;24.00;10.57;;;4.70;99.90;;;;;;4955850;28;20062;-70
2022/11/26 05:40:07;;;;;;;25.85;10.98;;;4.70;99.90;;;;;;4955551;28;20537;-70
2022/11/26 05:42:33;;;;;;;24.23;9.88;;;4.70;99.90;;;;;;4955716;28;20133;-70
2022/11/26 05:44:59;;;;;;;22.17;9.95;;;4.70;99.90;;;;;;4955315;28;20129;-70
2022/11/26 05:47:25;;;;;;;25.50;10.23;;;4.70;99.90;;;;;;4972695;28;20046;-70
2022/11/26 05:49:51;;;;;;;25.77;10.23;;;4.70;99.90;;;;;;4972325;28;20045;-71
2022/11/26 05:52:16;;;;;;;26.38;10.68;;;4.80;99.90;;;;;;4955253;28;20046;-70
2022/11/26 05:54:42;;;;;;;28.67;10.43;;;4.80;99.90;;;;;;4955121;28;20050;-70
2022/11/26 05:57:09;;;;;;;28.95;10.65;;;4.80;99.90;;;;;;4972523;28;20042;-70
2022/11/26 05:59:35;;;;;;;25.98;10.23;;;4.80;99.90;;;;;;4972651;28;20042;-70
2022/11/26 06:02:01;;;;;;;26.90;11.57;;;4.80;99.90;;;;;;4955221;28;20049;-70
2022/11/26 06:04:26;;;;;;;32.03;11.15;;;4.80;99.90;;;;;;4971999;28;20043;-70
2022/11/26 06:06:52;;;;;;;29.13;11.20;;;4.80;99.90;;;;;;4972594;28;20042;-70
2022/11/26 06:09:18;;;;;;;30.30;11.73;;;4.80;99.90;;;;;;4972339;28;20054;-70
2022/11/26 06:11:44;;;;;;;33.60;11.57;;;4.80;99.90;;;;;;4972486;28;20481;-70
2022/11/26 06:14:10;;;;;;;25.38;10.43;;;4.70;99.90;;;;;;4954120;28;20058;-70
2022/11/26 06:16:36;;;;;;;25.67;9.93;;;4.70;99.90;;;;;;4955005;28;20053;-70
2022/11/26 06:19:01;;;;;;;17.52;10.23;;;4.70;99.90;;;;;;4971762;28;20481;-70
2022/11/26 06:21:27;;;;;;;23.60;10.50;;;4.70;99.90;;;;;;4954880;28;20047;-70
2022/11/26 06:23:53;;;;;;;27.23;11.30;;;4.70;99.90;;;;;;4954746;28;20043;-69
2022/11/26 06:26:18;;;;;;;32.20;10.80;;;4.70;99.90;;;;;;4972008;28;20457;-70
2022/11/26 06:28:44;;;;;;;32.05;12.48;;;4.70;99.90;;;;;;4954963;28;20031;-70
2022/11/26 06:31:10;;;;;;;27.65;11.63;;;4.70;99.90;;;;;;4971980;28;20042;-69
2022/11/26 06:33:36;;;;;;;31.60;11.95;;;4.60;99.90;;;;;;4971654;28;20051;-70
2022/11/26 06:36:04;;;;;;;26.33;11.57;;;4.60;99.90;;;;;;4972069;28;20042;-69
2022/11/26 06:38:29;;;;;;;28.80;11.80;;;4.60;99.90;;;;;;4954597;28;20055;-70
2022/11/26 06:41:00;;;;;;;21.13;10.68;;;4.60;99.90;;;;;;4954516;28;20046;-69
2022/11/26 06:43:26;;;;;;;25.98;10.93;;;4.60;99.90;;;;;;4971884;28;20042;-69
2022/11/26 06:45:53;;;;;;;25.38;11.68;;;4.60;99.90;;;;;;4972097;28;20489;-70
2022/11/26 06:48:22;;;;;;;28.63;12.25;;;4.50;99.90;;;;;;4971920;28;20042;-69
2022/11/26 06:50:47;;;;;;;34.03;13.48;;;4.50;99.90;;;;;;4971799;28;20444;-70
2022/11/26 06:53:13;;;;;;;20.67;10.68;;;4.50;99.90;;;;;;4971944;28;20117;-69
2022/11/26 06:55:39;;;;;;;30.20;11.70;;;4.50;99.90;;;;;;4971984;28;20038;-69
2022/11/26 06:58:04;;;;;;;26.42;11.95;;;4.40;99.90;;;;;;4954461;28;20656;-69
2022/11/26 07:00:30;;;;;;;33.47;14.23;;;4.40;99.90;;;;;;4953893;28;20050;-69
2022/11/26 07:02:56;;;;;;;27.55;14.25;;;4.40;99.90;;;;;;4971661;28;20038;-69
2022/11/26 07:05:22;;;;;;;36.25;14.57;;;4.40;99.90;;;;;;4954228;28;20047;-69
2022/11/26 07:07:47;;;;;;;33.25;12.90;;;4.40;99.90;;;;;;4954296;28;20038;-69
2022/11/26 07:10:13;;;;;;;30.80;12.73;;;4.40;99.90;;;;;;4971747;28;20050;-69
2022/11/26 07:12:39;;;;;;;27.63;12.93;;;4.40;99.90;;;;;;4971536;28;20478;-69
2022/11/26 07:15:05;;;;;;;25.25;12.80;;;4.40;99.90;;;;;;4971221;28;20101;-69
2022/11/26 07:17:31;;;;;;;28.45;12.30;;;4.50;99.90;;;;;;4954273;28;20164;-69
2022/11/26 07:19:56;;;;;;;33.17;12.95;;;4.50;99.90;;;;;;4971527;28;20079;-69
2022/11/26 07:22:22;;;;;;;28.33;12.35;;;4.60;99.90;;;;;;4971774;28;20116;-69
2022/11/26 07:24:48;;;;;;;25.38;12.88;;;4.60;99.90;;;;;;4954628;28;20548;-69
2022/11/26 07:27:13;;;;;;;28.77;11.15;;;4.60;99.90;;;;;;4975267;28;20493;-69
2022/11/26 07:29:39;;;;;;;30.95;12.57;;;4.70;99.90;;;;;;4957380;28;20083;-70
2022/11/26 07:32:05;;;;;;;30.90;11.90;;;4.70;99.90;;;;;;4975160;28;20038;-69
2022/11/26 07:34:31;;;;;;;31.98;13.48;;;4.70;99.90;;;;;;4974954;28;20042;-69
2022/11/26 07:36:56;;;;;;;31.98;12.73;;;4.60;99.90;;;;;;4941679;28;20134;-69
2022/11/26 07:39:22;;;;;;;27.73;13.50;;;4.60;99.90;;;;;;4957573;28;20130;-69
2022/11/26 07:41:48;;;;;;;31.77;13.32;;;4.70;99.90;;;;;;4975171;28;20042;-69
2022/11/26 07:44:14;;;;;;;35.42;13.52;;;4.70;99.90;;;;;;4957141;28;20505;-70
2022/11/26 07:46:40;;;;;;;22.02;11.93;;;4.70;99.90;;;;;;4957504;28;20070;-69
2022/11/26 07:49:06;;;;;;;29.85;13.43;;;4.70;99.90;;;;;;4974837;28;20042;-69
2022/11/26 07:51:32;;;;;;;29.27;12.40;;;4.80;99.90;;;;;;4974934;28;20078;-69
2022/11/26 07:54:02;;;;;;;32.47;11.95;;;4.80;99.90;;;;;;4974758;28;20049;-69
2022/11/26 07:56:27;;;;;;;33.58;14.05;;;4.90;99.90;;;;;;4957657;28;20047;-69
2022/11/26 07:58:54;;;;;;;23.23;12.10;;;5.00;99.90;;;;;;4974358;28;20370;-69
2022/11/26 08:01:22;;;;;;;35.50;15.13;;;5.00;99.90;;;;;;4974720;28;20555;-69
2022/11/26 08:03:49;;;;;;;37.80;12.85;;;5.10;99.90;;;;;;4974483;28;20050;-69
2022/11/26 08:06:18;;;;;;;28.90;12.60;;;5.10;99.90;;;;;;4974755;28;20050;-69
2022/11/26 08:08:44;;;;;;;29.25;12.38;;;5.20;99.90;;;;;;4957481;28;20034;-69
2022/11/26 08:11:17;;;;;;;22.60;11.65;;;5.20;99.90;;;;;;4974704;28;20054;-69
2022/11/26 08:13:44;;;;;;;23.17;11.85;;;5.30;99.90;;;;;;4969477;28;20051;-69
2022/11/26 08:16:12;;;;;;;24.17;12.18;;;5.30;99.90;;;;;;4954100;29;20426;-69
2022/11/26 08:18:38;;;;;;;29.40;13.50;;;5.30;99.90;;;;;;4937760;29;20058;-69
2022/11/26 08:21:04;;;;;;;29.10;11.02;;;5.40;99.90;;;;;;4954086;29;20616;-69
2022/11/26 08:23:31;;;;;;;23.67;11.35;;;5.40;99.90;;;;;;4958501;28;20051;-65
2022/11/26 08:25:57;;;;;;;20.10;10.30;;;5.50;99.90;;;;;;4972890;28;20049;-68
2022/11/26 08:28:23;;;;;;;19.58;9.75;;;5.60;99.90;;;;;;4972512;28;20466;-69
2022/11/26 08:30:49;;;;;;;35.70;10.52;;;5.60;99.90;;;;;;4972815;28;20039;-69
2022/11/26 08:33:15;;;;;;;28.33;10.55;;;5.70;99.90;;;;;;4972893;28;20107;-68
2022/11/26 08:35:41;;;;;;;23.77;10.27;;;5.70;99.90;;;;;;4972890;28;20093;-71
2022/11/26 08:38:06;;;;;;;24.50;10.35;;;5.80;99.90;;;;;;4972432;28;20066;-69
2022/11/26 08:40:32;;;;;;;22.58;10.25;;;5.80;99.90;;;;;;4955678;28;20046;-69
2022/11/26 08:42:58;;;;;;;24.83;9.25;;;5.90;99.90;;;;;;4954818;28;20047;-67
2022/11/26 08:45:24;;;;;;;26.33;9.25;;;6.10;99.90;;;;;;4972453;28;20035;-69
2022/11/26 08:47:50;;;;;;;21.73;8.63;;;6.20;99.90;;;;;;4972627;28;20043;-69
2022/11/26 08:50:16;;;;;;;17.80;8.20;;;6.40;99.90;;;;;;4955296;28;20038;-69
2022/11/26 08:52:42;;;;;;;21.25;7.97;;;6.60;99.90;;;;;;4946233;28;20035;-69
2022/11/26 08:55:08;;;;;;;18.63;8.40;;;6.90;99.90;;;;;;4969805;28;20054;-69
2022/11/26 08:57:34;;;;;;;19.88;7.85;;;7.10;99.90;;;;;;4934536;28;20049;-70
2022/11/26 09:00:00;;;;;;;23.10;8.45;;;7.20;99.90;;;;;;4953187;28;20086;-69
2022/11/26 09:02:26;;;;;;;23.90;8.23;;;7.30;99.90;;;;;;4971981;28;20452;-70
2022/11/26 09:04:52;;;;;;;21.85;9.55;;;7.20;99.90;;;;;;4971805;28;20042;-69
2022/11/26 09:07:18;;;;;;;24.33;7.70;;;7.30;99.90;;;;;;4971808;28;20421;-69
2022/11/26 09:09:44;;;;;;;13.27;7.32;;;7.40;99.90;;;;;;4971766;28;20035;-69
2022/11/26 09:12:10;;;;;;;24.27;8.32;;;7.50;99.90;;;;;;4954139;28;20046;-69
2022/11/26 09:14:38;;;;;;;17.90;7.65;;;7.60;99.90;;;;;;4954158;28;20082;-69
2022/11/26 09:17:05;;;;;;;22.17;8.20;;;7.90;99.90;;;;;;4954022;28;20042;-69
2022/11/26 09:19:30;;;;;;;20.50;7.90;;;7.90;99.90;;;;;;4948406;28;20046;-70
2022/11/26 09:22:05;;;;;;;20.50;9.52;;;8.00;99.90;;;;;;4971458;28;20559;-69
2022/11/26 09:24:33;;;;;;;17.00;8.48;;;8.00;99.90;;;;;;4953537;28;20050;-69
2022/11/26 09:26:59;;;;;;;23.65;8.00;;;7.90;99.90;;;;;;4953407;28;20035;-70
2022/11/26 09:29:25;;;;;;;17.98;7.53;;;7.80;99.90;;;;;;4971288;28;20437;-69
2022/11/26 09:31:51;;;;;;;27.00;8.93;;;7.70;99.90;;;;;;4953824;28;20034;-70
2022/11/26 09:34:17;;;;;;;23.63;8.73;;;7.60;99.90;;;;;;4971169;28;20042;-68
2022/11/26 09:36:43;;;;;;;22.77;8.30;;;7.60;99.90;;;;;;4953880;28;20157;-68
2022/11/26 10:14:13;;;;;;;28.02;11.48;;;7.70;99.90;;;;;;5632636;23;20509;-68
2022/11/26 10:17:11;;;;;;;28.80;11.63;;;7.70;99.90;;;;;;4918253;29;20070;-69
2022/11/26 10:19:57;;;;;;;29.98;12.52;;;7.80;99.90;;;;;;4951066;28;20043;-69
2022/11/26 10:22:48;;;;;;;26.75;11.60;;;7.90;99.90;;;;;;4924954;28;20039;-68
2022/11/26 10:25:17;;;;;;;24.67;11.20;;;7.90;99.90;;;;;;4959284;28;20043;-69
2022/11/26 10:27:43;;;;;;;27.58;11.23;;;7.90;99.90;;;;;;4950984;28;20054;-69
2022/11/26 10:30:24;;;;;;;24.77;12.15;;;8.00;99.90;;;;;;4933682;29;20043;-69
2022/11/26 10:32:50;;;;;;;;;;;8.00;99.90;;;;;;4934448;28;20048;-68
2022/11/26 10:35:22;;;;;;;23.58;11.88;;;8.00;99.90;;;;;;4950968;28;20392;-69
2022/11/26 10:37:48;;;;;;;23.38;10.65;;;7.90;99.90;;;;;;4918105;29;20047;-69
2022/11/26 10:40:27;;;;;;;37.75;13.00;;;7.90;99.90;;;;;;4934218;29;20043;-68
2022/11/26 10:43:07;;;;;;;29.88;10.38;;;7.90;99.90;;;;;;4944835;28;20078;-69
2022/11/26 10:45:48;;;;;;;27.98;10.90;;;7.90;99.90;;;;;;4954153;28;20051;-70
2022/11/26 10:48:25;;;;;;;25.42;12.35;;;8.00;99.90;;;;;;4929877;29;20094;-69
2022/11/26 10:51:18;;;;;;;28.13;10.93;;;8.00;99.90;;;;;;4934574;29;20043;-69
2022/11/26 10:54:06;;;;;;;27.42;11.02;;;8.00;99.90;;;;;;4925897;29;20083;-69
2022/11/26 10:56:46;;;;;;;28.27;10.02;;;8.10;99.90;;;;;;4934896;28;20353;-69
2022/11/26 10:59:39;;;;;;;27.20;10.20;;;8.20;99.90;;;;;;4937749;28;20129;-69
2022/11/26 11:02:28;;;;;;;26.23;11.52;;;8.20;99.90;;;;;;4928897;28;20051;-70
2022/11/26 11:04:59;;;;;;;28.33;11.48;;;8.30;99.90;;;;;;4956479;28;20039;-69
2022/11/26 11:07:36;;;;;;;26.30;10.95;;;8.30;99.90;;;;;;4956647;28;20051;-69
2022/11/26 11:10:08;;;;;;;21.73;9.27;;;8.40;99.90;;;;;;4956453;28;20039;-69
2022/11/26 11:12:35;;;;;;;25.50;12.45;;;8.40;99.90;;;;;;4955240;28;20065;-69
2022/11/26 11:15:19;;;;;;;24.95;10.95;;;8.50;99.90;;;;;;4952847;29;20062;-69
2022/11/26 11:17:52;;;;;;;22.38;10.23;;;8.50;99.90;;;;;;4954260;28;20039;-69
2022/11/26 11:20:18;;;;;;;27.33;10.50;;;8.60;99.90;;;;;;4965664;28;20146;-70
2022/11/26 11:22:44;;;;;;;28.30;8.95;;;8.60;99.90;;;;;;4946306;29;20044;-69
2022/11/26 11:25:29;;;;;;;22.05;8.93;;;8.60;99.90;;;;;;4937140;29;20269;-69
2022/11/26 11:28:03;;;;;;;30.55;11.88;;;8.60;99.90;;;;;;4965895;28;20039;-69
2022/11/26 11:30:33;;;;;;;25.40;9.68;;;8.70;99.90;;;;;;4965159;28;20041;-69
2022/11/26 11:33:24;;;;;;;24.20;10.45;;;8.70;99.90;;;;;;4963201;28;20125;-69
2022/11/26 11:36:01;;;;;;;26.15;9.02;;;8.70;99.90;;;;;;4919872;29;20074;-69
2022/11/26 11:38:29;;;;;;;28.95;11.02;;;8.70;99.90;;;;;;4947336;28;20077;-69
2022/11/26 11:40:55;;;;;;;22.63;10.32;;;8.70;99.90;;;;;;4954826;28;20042;-71
2022/11/26 11:43:24;;;;;;;29.20;10.95;;;8.70;99.90;;;;;;4987108;28;20035;-69
2022/11/26 11:45:52;;;;;;;24.38;10.00;;;8.70;99.90;;;;;;4973297;28;20495;-69
2022/11/26 11:48:18;;;;;;;26.13;10.55;;;8.70;99.90;;;;;;4955618;28;20562;-69
2022/11/26 11:51:20;;;;;;;28.13;9.88;;;8.70;99.90;;;;;;4955666;28;20038;-70
2022/11/26 11:54:21;;;;;;;29.77;10.65;;;8.70;99.90;;;;;;4939804;28;20054;-69
2022/11/26 11:56:51;;;;;;;;;;;8.80;99.90;;;;;;4942732;28;20384;-70
2022/11/26 11:59:46;;;;;;;27.40;9.38;;;8.90;99.90;;;;;;4955597;28;19968;-70
2022/11/26 12:02:35;;;;;;;29.85;10.45;;;9.00;99.90;;;;;;4955761;28;20158;-70
2022/11/26 12:05:39;;;;;;;22.30;9.30;;;9.30;99.90;;;;;;4954820;28;20046;-69
2022/11/26 12:08:28;;;;;;;25.60;9.23;;;9.80;99.90;;;;;;4955397;28;20039;-70
2022/11/26 12:10:59;;;;;;;21.92;9.43;;;10.10;99.90;;;;;;4972718;28;20448;-69
2022/11/26 12:13:27;;;;;;;24.42;9.38;;;10.30;99.90;;;;;;4971834;28;20074;-70
2022/11/26 12:16:02;;;;;;;26.45;10.27;;;10.40;99.90;;;;;;4972633;28;20047;-70
2022/11/26 12:18:29;;;;;;;17.65;7.63;;;10.40;99.90;;;;;;4953750;28;20157;-70
2022/11/26 12:21:08;;;;;;;20.67;9.43;;;10.40;99.90;;;;;;4967571;28;20035;-69
2022/11/26 12:23:46;;;;;;;25.63;8.80;;;10.40;99.90;;;;;;4965336;28;20604;-70
2022/11/26 12:26:54;;;;;;;24.98;8.88;;;10.30;99.90;;;;;;4953787;29;20043;-69
2022/11/26 12:29:41;;;;;;;27.42;9.05;;;10.30;99.90;;;;;;4955609;28;20465;-70
2022/11/26 12:32:24;;;;;;;19.98;8.10;;;10.20;99.90;;;;;;4973030;28;20043;-70
2022/11/26 12:34:54;;;;;;;27.40;8.13;;;10.10;99.90;;;;;;4972314;28;20038;-70
2022/11/26 12:37:39;;;;;;;19.98;7.68;;;10.10;99.90;;;;;;4967782;28;20035;-69
2022/11/26 12:40:33;;;;;;;24.73;9.38;;;10.00;99.90;;;;;;4964788;28;20354;-69
2022/11/26 12:43:12;;;;;;;20.42;7.47;;;10.00;99.90;;;;;;4955927;28;20426;-69
2022/11/26 12:45:52;;;;;;;19.65;8.13;;;9.90;99.90;;;;;;4973277;28;20105;-69
2022/11/26 12:48:32;;;;;;;23.67;7.85;;;9.90;99.90;;;;;;4966262;28;20046;-69
2022/11/26 12:51:20;;;;;;;18.85;7.85;;;9.80;99.90;;;;;;4964877;28;20049;-69
2022/11/26 12:54:07;;;;;;;21.55;9.15;;;9.80;99.90;;;;;;4972959;28;20054;-69
2022/11/26 12:56:44;;;;;;;24.33;8.88;;;9.80;99.90;;;;;;4955693;28;20046;-70
2022/11/26 12:59:16;;;;;;;20.20;8.13;;;9.80;99.90;;;;;;4955888;28;20065;-69
2022/11/26 13:01:42;;;;;;;22.05;8.65;;;9.70;99.90;;;;;;4955766;28;20389;-70
2022/11/26 13:04:08;;;;;;;27.40;8.90;;;9.70;99.90;;;;;;4972507;28;20137;-69
2022/11/26 13:07:11;;;;;;;23.58;8.93;;;9.70;99.90;;;;;;4972776;28;20122;-70
2022/11/26 13:10:07;;;;;;;25.92;8.40;;;9.70;99.90;;;;;;4939479;28;20492;-70
2022/11/26 13:13:03;;;;;;;21.20;8.15;;;9.80;99.90;;;;;;4972957;28;20041;-69
2022/11/26 13:15:40;;;;;;;24.63;9.15;;;9.80;99.90;;;;;;4971987;28;20109;-69
2022/11/26 13:18:26;;;;;;;17.25;8.23;;;9.80;99.90;;;;;;4955018;28;20094;-69
2022/11/26 13:21:17;;;;;;;20.83;8.63;;;9.70;99.90;;;;;;4972634;28;20042;-68
2022/11/26 13:24:07;;;;;;;25.50;9.45;;;9.70;99.90;;;;;;4946441;28;20047;-70
2022/11/26 13:26:54;;;;;;;20.13;8.82;;;9.70;99.90;;;;;;4936192;29;20437;-69
2022/11/26 13:29:41;;;;;;;23.63;9.20;;;9.70;99.90;;;;;;4953066;28;20047;-70
2022/11/26 13:32:25;;;;;;;25.52;8.95;;;9.70;99.90;;;;;;4962942;28;20082;-70
2022/11/26 13:35:25;;;;;;;23.00;10.18;;;9.70;99.90;;;;;;4954966;28;20684;-69